Time;durP1;ratioP1;P1;durP2;ratioP2;P2;SDS_P1;SDS_P2;PMS_P1;PMS_P2;Temp;Humidity;BMP_temperature;BMP_pressure;BME280_temperature;BME280_humidity;BME280_pressure;Samples;Min_cycle;Max_cycle;Signal;HPM_P1;HPM_P2
2023/11/18 00:02:19;;;;;;;;;;;;;;;5.80;82.03;101716.22;4143878;28;19936;-86
2023/11/18 00:04:39;;;;;;;;;;;;;;;5.81;82.37;101722.44;4148472;28;19928;-89
2023/11/18 00:07:01;;;;;;;;;;;;;;;5.80;82.35;101720.72;4148255;28;19928;-87
2023/11/18 00:09:25;;;;;;;;;;;;;;;5.82;82.30;101726.84;4133296;28;20012;-89
2023/11/18 00:11:46;;;;;;;;;;;;;;;5.81;81.99;101725.97;4131890;28;20001;-93
2023/11/18 00:14:13;;;;;;;;;;;;;;;5.81;82.13;101723.28;4148976;28;19987;-90
2023/11/18 00:16:35;;;;;;;;;;;;;;;5.81;81.72;101725.97;4146517;28;20391;-89
2023/11/18 00:19:01;;;;;;;;;;;;;;;5.82;81.88;101737.56;4135282;28;19936;-89
2023/11/18 00:21:22;;;;;;;;;;;;;;;5.82;81.74;101737.56;4148196;28;19968;-90
2023/11/18 00:23:48;;;;;;;;;;;;;;;5.82;81.57;101741.09;4150037;28;19928;-89
2023/11/18 00:26:13;;;;;;;;;;;;;;;5.83;81.43;101741.94;4148976;28;19932;-90
2023/11/18 00:28:35;;;;;;;;;;;;;;;5.82;81.91;101738.41;4141393;28;20331;-89
2023/11/18 00:31:00;;;;;;;;;;;;;;;5.84;81.82;101751.69;4162272;28;20008;-91
2023/11/18 00:33:22;;;;;;;;;;;;;;;5.83;81.82;101758.00;4155602;28;19928;-89
2023/11/18 00:35:45;;;;;;;;;;;;;;;5.83;81.78;101756.19;4147593;28;19928;-88
2023/11/18 00:38:05;;;;;;;;;;;;;;;5.84;81.84;101757.03;4147020;28;20506;-88
2023/11/18 00:40:26;;;;;;;;;;;;;;;5.83;81.59;101753.53;4141066;28;19952;-88
2023/11/18 00:43:10;;;;;;;;;;;;;;;5.83;81.83;101760.69;4139461;28;19964;-93
2023/11/18 00:45:32;;;;;;;;;;;;;;;5.82;82.13;101769.72;4131709;28;19971;-91
2023/11/18 00:47:54;;;;;;;;;;;;;;;5.83;82.13;101772.28;4147561;28;19987;-89
2023/11/18 00:50:15;;;;;;;;;;;;;;;5.83;81.95;101777.66;4147432;28;20003;-90
2023/11/18 00:52:38;;;;;;;;;;;;;;;5.82;81.94;101770.56;4150061;28;20032;-90
2023/11/18 00:55:02;;;;;;;;;;;;;;;5.82;81.92;101775.94;4151961;28;19927;-90
2023/11/18 00:57:25;;;;;;;;;;;;;;;5.82;82.21;101775.94;4142841;28;19928;-91
2023/11/18 00:59:46;;;;;;;;;;;;;;;5.83;82.02;101784.81;4160678;28;19928;-93
2023/11/18 01:02:13;;;;;;;;;;;;;;;5.83;81.81;101787.50;4159741;28;19951;-92
2023/11/18 01:04:38;;;;;;;;;;;;;;;5.83;81.68;101787.50;4168032;28;19920;-95
2023/11/18 01:07:02;;;;;;;;;;;;;;;5.83;82.22;101792.88;4154363;28;19932;-92
2023/11/18 01:09:25;;;;;;;;;;;;;;;5.83;82.18;101799.09;4167855;28;19928;-90
2023/11/18 01:11:45;;;;;;;;;;;;;;;5.83;82.01;101800.91;4182330;28;19981;-93
2023/11/18 01:14:07;;;;;;;;;;;;;;;5.83;82.15;101803.59;4171321;28;19918;-93
2023/11/18 01:16:29;;;;;;;;;;;;;;;5.82;81.94;101808.09;4176399;28;20323;-89
2023/11/18 01:18:56;;;;;;;;;;;;;;;5.82;81.99;101810.78;4149063;28;19928;-89
2023/11/18 01:21:21;;;;;;;;;;;;;;;5.82;82.13;101808.09;4152986;28;20422;-88
2023/11/18 01:24:10;;;;;;;;;;;;;;;5.83;81.83;101806.25;4140981;28;19973;-88
2023/11/18 01:26:31;;;;;;;;;;;;;;;5.83;81.67;101808.94;4160060;28;19928;-89
2023/11/18 01:28:52;;;;;;;;;;;;;;;5.81;81.93;101806.38;4139952;28;19928;-89
2023/11/18 01:31:13;;;;;;;;;;;;;;;5.83;81.55;101814.31;4140004;28;20017;-88
2023/11/18 01:33:37;;;;;;;;;;;;;;;5.83;81.77;101814.31;4139600;28;20045;-89
2023/11/18 01:36:01;;;;;;;;;;;;;;;5.83;81.55;101815.19;4137446;28;19933;-89
2023/11/18 01:38:22;;;;;;;;;;;;;;;5.82;81.71;101812.63;4152851;28;20039;-88
2023/11/18 01:40:45;;;;;;;;;;;;;;;5.83;81.93;101820.53;4149141;28;20467;-89
2023/11/18 01:43:11;;;;;;;;;;;;;;;5.83;82.11;101822.34;4164750;28;19967;-90
2023/11/18 01:45:34;;;;;;;;;;;;;;;5.82;82.29;101829.56;4137567;28;20081;-89
2023/11/18 01:47:54;;;;;;;;;;;;;;;5.82;81.93;101823.34;4136658;28;19972;-89
2023/11/18 01:50:15;;;;;;;;;;;;;;;5.82;81.86;101829.56;4147041;28;19929;-90
2023/11/18 01:52:37;;;;;;;;;;;;;;;5.82;81.80;101823.34;4160053;28;20390;-90
2023/11/18 01:55:01;;;;;;;;;;;;;;;5.82;82.02;101821.50;4141217;28;19928;-90
2023/11/18 01:57:22;;;;;;;;;;;;;;;5.83;82.12;101833.94;4166655;28;19927;-89
2023/11/18 01:59:45;;;;;;;;;;;;;;;5.82;82.53;101826.88;4137014;28;20036;-89
2023/11/18 02:02:06;;;;;;;;;;;;;;;5.84;82.65;101837.47;4143070;28;19956;-89
2023/11/18 02:04:27;;;;;;;;;;;;;;;5.82;82.16;101834.91;4151331;28;20319;-87
2023/11/18 02:06:49;;;;;;;;;;;;;;;5.82;82.51;101834.06;4167634;28;20271;-88
2023/11/18 02:09:11;;;;;;;;;;;;;;;5.84;82.43;101832.13;4165256;28;19939;-86
2023/11/18 02:11:33;;;;;;;;;;;;;;;5.84;81.90;101837.47;4166436;28;19928;-87
2023/11/18 02:13:54;;;;;;;;;;;;;;;5.83;81.28;101842.00;4151307;28;20016;-87
2023/11/18 02:16:15;;;;;;;;;;;;;;;5.84;81.60;101848.19;4164951;28;19936;-87
2023/11/18 02:18:36;;;;;;;;;;;;;;;5.84;82.26;101849.03;4151616;28;19992;-86
2023/11/18 02:20:58;;;;;;;;;;;;;;;5.84;82.24;101848.19;4147185;28;19973;-87
2023/11/18 02:23:21;;;;;;;;;;;;;;;5.83;82.62;101844.69;4164194;28;19969;-86
2023/11/18 02:25:45;;;;;;;;;;;;;;;5.84;82.24;101846.38;4146567;28;19928;-87
2023/11/18 02:28:07;;;;;;;;;;;;;;;5.83;81.87;101844.69;4150203;28;20292;-89
2023/11/18 02:30:30;;;;;;;;;;;;;;;5.83;82.44;101849.16;4162755;28;19928;-89
2023/11/18 02:32:51;;;;;;;;;;;;;;;5.82;82.55;101834.91;4149412;28;19983;-86
2023/11/18 02:35:15;;;;;;;;;;;;;;;5.83;82.48;101841.13;4151387;28;19929;-87
2023/11/18 02:37:36;;;;;;;;;;;;;;;5.83;82.99;101843.81;4138538;28;19929;-87
2023/11/18 02:39:59;;;;;;;;;;;;;;;5.83;82.57;101846.47;4165663;28;19968;-87
2023/11/18 02:42:22;;;;;;;;;;;;;;;5.83;82.53;101857.22;4164488;28;19980;-87
2023/11/18 02:44:43;;;;;;;;;;;;;;;5.83;82.77;101855.41;4161961;28;19927;-88
2023/11/18 02:47:05;;;;;;;;;;;;;;;5.82;82.44;101856.38;4149274;28;20009;-87
2023/11/18 02:49:25;;;;;;;;;;;;;;;5.84;82.90;101850.88;4164180;28;19975;-87
2023/11/18 02:51:47;;;;;;;;;;;;;;;5.83;82.93;101857.22;4146725;28;20008;-87
2023/11/18 02:54:10;;;;;;;;;;;;;;;5.82;83.08;101855.53;4152277;28;19963;-89
2023/11/18 02:56:31;;;;;;;;;;;;;;;5.81;83.23;101851.97;4157055;28;19928;-90
2023/11/18 02:58:53;;;;;;;;;;;;;;;5.82;83.10;101856.38;4152178;28;19944;-89
2023/11/18 03:01:14;;;;;;;;;;;;;;;5.83;82.99;101857.22;4145181;28;20343;-89
2023/11/18 03:03:34;;;;;;;;;;;;;;;5.83;83.07;101851.84;4139870;28;20320;-89
2023/11/18 03:05:56;;;;;;;;;;;;;;;5.82;83.48;101852.84;4152083;28;19972;-91
2023/11/18 03:08:18;;;;;;;;;;;;;;;5.82;83.50;101861.72;4146434;28;19928;-89
2023/11/18 03:10:44;;;;;;;;;;;;;;;5.82;83.63;101861.72;4150762;28;19963;-90
2023/11/18 03:13:07;;;;;;;;;;;;;;;5.82;83.83;101852.84;4124424;28;19954;-88
2023/11/18 03:15:29;;;;;;;;;;;;;;;5.82;83.29;101850.16;4161409;28;19972;-91
2023/11/18 03:17:50;;;;;;;;;;;;;;;5.83;82.94;101857.22;4151119;28;19986;-87
2023/11/18 03:20:14;;;;;;;;;;;;;;;5.83;82.75;101851.84;4148023;28;19968;-89
2023/11/18 03:22:35;;;;;;;;;;;;;;;5.82;83.40;101853.69;4136855;28;19936;-89
2023/11/18 03:24:57;;;;;;;;;;;;;;;5.83;83.58;101857.22;4151688;28;20007;-89
2023/11/18 03:27:22;;;;;;;;;;;;;;;5.84;83.46;101856.25;4137125;28;20025;-90
2023/11/18 03:29:45;;;;;;;;;;;;;;;5.84;83.18;101859.78;4150717;28;19928;-89
2023/11/18 03:32:08;;;;;;;;;;;;;;;5.83;83.43;101862.56;4133796;28;19937;-88
2023/11/18 03:34:28;;;;;;;;;;;;;;;5.83;83.57;101865.25;4161948;28;19963;-89
2023/11/18 03:36:51;;;;;;;;;;;;;;;5.83;83.82;101862.56;4139301;28;19968;-89
2023/11/18 03:39:12;;;;;;;;;;;;;;;5.81;83.82;101862.69;4144293;28;19928;-89
2023/11/18 03:41:31;;;;;;;;;;;;;;;5.84;83.65;101862.44;4145445;28;20308;-87
2023/11/18 03:43:52;;;;;;;;;;;;;;;5.83;83.27;101870.63;4150073;28;20603;-88
2023/11/18 03:46:13;;;;;;;;;;;;;;;5.83;83.52;101866.13;4162297;28;19951;-89
2023/11/18 03:48:35;;;;;;;;;;;;;;;5.84;83.36;101861.59;4164130;28;20002;-89
2023/11/18 03:50:56;;;;;;;;;;;;;;;5.84;83.50;101867.81;4149957;28;19944;-89
2023/11/18 03:53:17;;;;;;;;;;;;;;;5.84;83.49;101869.66;4149473;28;20465;-90
2023/11/18 03:55:38;;;;;;;;;;;;;;;5.83;83.66;101873.28;4165523;28;19972;-90
2023/11/18 03:58:02;;;;;;;;;;;;;;;5.82;83.75;101863.56;4150917;28;20776;-88
2023/11/18 04:00:29;;;;;;;;;;;;;;;5.82;84.13;101867.09;4145143;28;19929;-89
2023/11/18 04:02:50;;;;;;;;;;;;;;;5.82;83.97;101871.59;4164330;28;19936;-89
2023/11/18 04:05:12;;;;;;;;;;;;;;;5.82;83.67;101874.28;4150028;28;20001;-90
2023/11/18 04:07:33;;;;;;;;;;;;;;;5.81;83.85;101869.88;4162749;28;19928;-90
2023/11/18 04:09:54;;;;;;;;;;;;;;;5.80;83.89;101869.03;4166352;28;19967;-89
2023/11/18 04:12:16;;;;;;;;;;;;;;;5.81;83.55;101873.41;4149626;28;19955;-90
2023/11/18 04:14:40;;;;;;;;;;;;;;;5.83;83.55;101873.28;4141776;28;19928;-90
2023/11/18 04:17:01;;;;;;;;;;;;;;;5.83;83.58;101874.16;4149969;28;19980;-89
2023/11/18 04:19:22;;;;;;;;;;;;;;;5.82;83.39;101880.50;4154952;28;19973;-90
2023/11/18 04:21:48;;;;;;;;;;;;;;;5.82;83.81;101882.31;4144670;28;19952;-89
2023/11/18 04:24:09;;;;;;;;;;;;;;;5.83;83.57;101884.03;4145282;28;19976;-90
2023/11/18 04:26:30;;;;;;;;;;;;;;;5.81;83.75;101889.50;4144710;28;20036;-90
2023/11/18 04:28:53;;;;;;;;;;;;;;;5.82;83.94;101885.00;4150558;28;19959;-89
2023/11/18 04:31:21;;;;;;;;;;;;;;;5.81;83.87;101888.66;4143402;28;19928;-90
2023/11/18 04:33:44;;;;;;;;;;;;;;;5.81;84.08;101892.19;4150162;28;19928;-90
2023/11/18 04:36:16;;;;;;;;;;;;;;;5.82;83.99;101903.78;4139204;28;20075;-90
2023/11/18 04:38:38;;;;;;;;;;;;;;;5.81;83.55;101900.22;4164578;28;20370;-90
2023/11/18 04:41:00;;;;;;;;;;;;;;;5.82;83.76;101901.94;4166017;28;19975;-90
2023/11/18 04:43:22;;;;;;;;;;;;;;;5.83;83.66;101905.47;4135934;28;19980;-89
2023/11/18 04:45:43;;;;;;;;;;;;;;;5.81;83.76;101919.00;4147521;28;20562;-91
2023/11/18 04:48:16;;;;;;;;;;;;;;;5.81;83.98;101905.59;4135395;28;19983;-89
2023/11/18 04:50:36;;;;;;;;;;;;;;;5.82;84.22;101915.34;4165536;28;19927;-87
2023/11/18 04:52:57;;;;;;;;;;;;;;;5.82;83.98;101912.66;4164959;28;20018;-89
2023/11/18 04:55:20;;;;;;;;;;;;;;;5.83;83.96;101913.50;4150146;28;19928;-88
2023/11/18 04:57:58;;;;;;;;;;;;;;;5.84;84.06;101917.91;4234770;27;19912;-68
2023/11/18 05:00:01;;;;;;;;;;;;;;;5.81;83.98;101916.31;4234084;28;19931;-69
2023/11/18 05:02:11;;;;;;;;;;;;;;;5.82;83.86;101909.13;4233678;28;20368;-69
2023/11/18 05:04:13;;;;;;;;;;;;;;;5.82;83.91;101920.72;4233410;28;19971;-72
2023/11/18 05:06:15;;;;;;;;;;;;;;;5.81;84.23;101921.66;4233913;28;20051;-70
2023/11/18 05:08:21;;;;;;;;;;;;;;;5.81;84.01;101924.34;4233766;28;20022;-70
2023/11/18 05:10:23;;;;;;;;;;;;;;;5.83;83.96;101921.56;4233695;28;20079;-69
2023/11/18 05:12:25;;;;;;;;;;;;;;;5.84;83.81;101924.13;4233648;28;20031;-72
2023/11/18 05:14:29;;;;;;;;;;;;;;;5.82;84.12;101920.72;4233919;28;20018;-71
2023/11/18 05:16:31;;;;;;;;;;;;;;;5.83;84.07;101926.91;4234144;28;20019;-71
2023/11/18 05:18:35;;;;;;;;;;;;;;;5.82;84.21;101922.53;4233292;28;20022;-70
2023/11/18 05:20:37;;;;;;;;;;;;;;;5.83;84.20;101921.56;4231705;28;20022;-72
2023/11/18 05:22:41;;;;;;;;;;;;;;;5.82;84.52;101920.72;4233495;28;20646;-71
2023/11/18 05:24:44;;;;;;;;;;;;;;;5.82;84.38;101919.88;4233374;28;20018;-72
2023/11/18 05:26:45;;;;;;;;;;;;;;;5.82;84.49;101918.03;4233374;28;20015;-71
2023/11/18 05:28:48;;;;;;;;;;;;;;;5.82;84.55;101922.53;4233673;28;19932;-72
2023/11/18 05:30:51;;;;;;;;;;;;;;;5.83;84.33;101924.22;4232950;27;20453;-71
2023/11/18 05:32:53;;;;;;;;;;;;;;;5.82;84.75;101922.53;4234015;28;20034;-72
2023/11/18 05:34:57;;;;;;;;;;;;;;;5.81;84.72;101915.47;4233207;28;19928;-72
2023/11/18 05:36:59;;;;;;;;;;;;;;;5.82;84.76;101912.66;4233773;28;20473;-71
2023/11/18 05:39:01;;;;;;;;;;;;;;;5.81;84.86;101915.47;4211950;28;20026;-72
2023/11/18 05:41:03;;;;;;;;;;;;;;;5.82;84.88;101914.50;4233416;28;20030;-71
2023/11/18 05:43:15;;;;;;;;;;;;;;;5.82;84.64;101920.72;4233053;27;20034;-72
2023/11/18 05:45:27;;;;;;;;;;;;;;;5.82;84.86;101923.38;4233217;28;20018;-73
2023/11/18 05:47:30;;;;;;;;;;;;;;;5.82;84.73;101926.06;4233658;27;20374;-72
2023/11/18 05:49:32;;;;;;;;;;;;;;;5.83;84.60;101922.44;4233185;28;20024;-72
2023/11/18 05:51:33;;;;;;;;;;;;;;;5.83;84.62;101916.19;4233400;28;20011;-71
2023/11/18 05:53:36;;;;;;;;;;;;;;;5.82;84.42;101925.22;4233480;28;19953;-73
2023/11/18 05:55:38;;;;;;;;;;;;;;;5.82;84.61;101928.75;4233626;28;20027;-71
2023/11/18 05:57:40;;;;;;;;;;;;;;;5.81;84.68;101924.34;4231308;28;20417;-70
2023/11/18 05:59:42;;;;;;;;;;;;;;;5.81;84.95;101919.00;4232488;28;20054;-72
2023/11/18 06:01:44;;;;;;;;;;;;;;;5.80;85.21;101929.81;4233328;28;19932;-71
2023/11/18 06:03:47;;;;;;;;;;;;;;;5.79;85.37;101923.63;4232639;28;20018;-72
2023/11/18 06:05:48;;;;;;;;;;;;;;;5.78;85.38;101933.50;4232313;28;20018;-70
2023/11/18 06:07:51;;;;;;;;;;;;;;;5.80;85.23;101927.16;4229362;28;20012;-72
2023/11/18 06:09:53;;;;;;;;;;;;;;;5.80;85.01;101932.50;4222186;28;20019;-70
2023/11/18 06:11:54;;;;;;;;;;;;;;;5.78;85.11;101930.81;4222224;28;20015;-72
2023/11/18 06:13:56;;;;;;;;;;;;;;;5.78;85.09;101928.13;4219554;28;20010;-72
2023/11/18 06:15:58;;;;;;;;;;;;;;;5.78;84.74;101933.50;4220818;28;20003;-71
2023/11/18 06:18:01;;;;;;;;;;;;;;;5.79;84.79;101942.38;4222390;28;20019;-71
2023/11/18 06:20:06;;;;;;;;;;;;;;;5.78;84.82;101938.88;4221951;28;20014;-72
2023/11/18 06:22:10;;;;;;;;;;;;;;;5.80;84.76;101928.03;4221390;28;19960;-72
2023/11/18 06:24:13;;;;;;;;;;;;;;;5.78;84.73;101933.50;4221194;28;20024;-70
2023/11/18 06:26:19;;;;;;;;;;;;;;;5.76;84.62;101932.75;4219700;28;20019;-70
2023/11/18 06:28:19;;;;;;;;;;;;;;;5.76;84.88;101931.91;4221405;28;20046;-71
2023/11/18 06:30:22;;;;;;;;;;;;;;;5.75;84.65;101931.06;4219467;28;20363;-71
2023/11/18 06:32:25;;;;;;;;;;;;;;;5.71;84.96;101932.25;4219464;28;20124;-71
2023/11/18 06:34:27;;;;;;;;;;;;;;;5.71;84.64;101932.25;4221243;28;20058;-72
2023/11/18 06:36:31;;;;;;;;;;;;;;;5.68;85.04;101940.50;4220220;28;19998;-69
2023/11/18 06:38:34;;;;;;;;;;;;;;;5.69;85.11;101944.03;4221448;28;20022;-72
2023/11/18 06:40:35;;;;;;;;;;;;;;;5.67;84.87;101943.31;4222474;28;20018;-70
2023/11/18 06:42:39;;;;;;;;;;;;;;;5.66;85.09;101946.94;4223593;28;20313;-70
2023/11/18 06:44:41;;;;;;;;;;;;;;;5.61;85.24;101947.28;4222530;28;20349;-70
2023/11/18 06:46:46;;;;;;;;;;;;;;;5.62;85.29;101948.16;4222418;28;19963;-70
2023/11/18 06:48:48;;;;;;;;;;;;;;;5.59;85.56;101947.44;4221714;28;20015;-70
2023/11/18 06:50:50;;;;;;;;;;;;;;;5.58;85.35;101960.97;4219914;28;19924;-70
2023/11/18 06:52:53;;;;;;;;;;;;;;;5.56;85.26;101962.88;4220616;28;19927;-71
2023/11/18 06:54:56;;;;;;;;;;;;;;;5.52;85.43;101962.25;4222204;28;19983;-71
2023/11/18 06:56:58;;;;;;;;;;;;;;;5.52;85.81;101961.41;4221327;28;20294;-70
2023/11/18 06:58:59;;;;;;;;;;;;;;;5.51;85.59;101970.41;4221678;28;20407;-70
2023/11/18 07:01:01;;;;;;;;;;;;;;;5.51;85.94;101978.44;4219976;28;19928;-71
2023/11/18 07:03:03;;;;;;;;;;;;;;;5.48;86.19;101974.16;4220134;28;20386;-70
2023/11/18 07:05:05;;;;;;;;;;;;;;;5.47;86.11;101977.81;4222607;28;20015;-70
2023/11/18 07:07:12;;;;;;;;;;;;;;;5.46;86.12;101977.94;4235340;27;20010;-69
2023/11/18 07:09:17;;;;;;;;;;;;;;;5.47;86.23;101974.28;4235071;27;19953;-69
2023/11/18 07:11:18;;;;;;;;;;;;;;;5.48;86.41;101973.31;4217895;28;20006;-70
2023/11/18 07:13:22;;;;;;;;;;;;;;;5.46;86.07;101973.44;4220203;28;20449;-71
2023/11/18 07:15:25;;;;;;;;;;;;;;;5.45;86.22;101970.84;4220444;28;20004;-69
2023/11/18 07:17:27;;;;;;;;;;;;;;;5.42;86.38;101977.28;4220251;28;19928;-71
2023/11/18 07:19:29;;;;;;;;;;;;;;;5.40;86.43;101980.09;4218067;28;20011;-72
2023/11/18 07:21:32;;;;;;;;;;;;;;;5.40;86.67;101984.59;4220057;28;20357;-72
2023/11/18 07:23:34;;;;;;;;;;;;;;;5.39;86.54;101985.56;4220379;28;20433;-70
2023/11/18 07:25:37;;;;;;;;;;;;;;;5.39;86.52;101980.19;4221176;28;20018;-70
2023/11/18 07:27:39;;;;;;;;;;;;;;;5.38;86.53;101983.88;4222231;28;20043;-71
2023/11/18 07:29:41;;;;;;;;;;;;;;;5.40;86.60;101982.75;4221566;28;19991;-70
2023/11/18 07:31:46;;;;;;;;;;;;;;;5.40;86.58;101984.59;4218557;28;19924;-71
2023/11/18 07:33:50;;;;;;;;;;;;;;;5.43;86.52;101988.88;4219200;28;20034;-70
2023/11/18 07:35:52;;;;;;;;;;;;;;;5.43;86.53;101996.91;4220691;28;20027;-71
2023/11/18 07:37:58;;;;;;;;;;;;;;;5.43;86.65;101997.75;4203658;28;19989;-70
2023/11/18 07:40:00;;;;;;;;;;;;;;;5.45;86.40;102000.34;4218806;28;19971;-70
2023/11/18 07:42:05;;;;;;;;;;;;;;;5.45;86.36;102003.84;4220089;28;19987;-71
2023/11/18 07:44:12;;;;;;;;;;;;;;;5.46;86.05;102010.09;4202509;28;19924;-71
2023/11/18 07:46:15;;;;;;;;;;;;;;;5.49;86.30;102009.88;4220274;28;19974;-68
2023/11/18 07:48:19;;;;;;;;;;;;;;;5.50;85.86;102011.56;4219163;28;20006;-70
2023/11/18 07:50:24;;;;;;;;;;;;;;;5.49;86.11;102013.41;4218179;28;20015;-71
2023/11/18 07:52:27;;;;;;;;;;;;;;;5.50;85.92;102015.13;4217554;28;20018;-72
2023/11/18 07:54:29;;;;;;;;;;;;;;;5.53;85.75;102022.06;4218560;28;20484;-70
2023/11/18 07:56:32;;;;;;;;;;;;;;;5.55;85.75;102025.50;4218527;28;20351;-69
2023/11/18 07:58:37;;;;;;;;;;;;;;;5.55;85.66;102022.81;4214566;28;20249;-69
2023/11/18 08:00:39;;;;;;;;;;;;;;;5.57;85.42;102020.88;4216404;28;20022;-70
2023/11/18 08:02:45;;;;;;;;;;;;;;;5.58;85.31;102026.13;4217972;28;20003;-73
2023/11/18 08:04:47;;;;;;;;;;;;;;;5.60;85.19;102031.38;4218652;28;20448;-70
2023/11/18 08:06:51;;;;;;;;;;;;;;;5.62;85.01;102032.09;4219598;28;19974;-69
2023/11/18 08:08:54;;;;;;;;;;;;;;;5.63;84.83;102025.78;4217537;28;20046;-70
2023/11/18 08:10:56;;;;;;;;;;;;;;;5.64;84.58;102027.47;4218421;28;20011;-71
2023/11/18 08:12:58;;;;;;;;;;;;;;;5.66;84.59;102033.59;4218461;28;20020;-71
2023/11/18 08:15:03;;;;;;;;;;;;;;;5.69;84.53;102037.84;4218883;28;20686;-74
2023/11/18 08:17:05;;;;;;;;;;;;;;;5.70;84.36;102040.44;4217319;28;20022;-70
2023/11/18 08:19:09;;;;;;;;;;;;;;;5.70;84.44;102043.09;4217644;28;20303;-69
2023/11/18 08:21:12;;;;;;;;;;;;;;;5.71;84.23;102039.47;4217792;28;20249;-70
2023/11/18 08:23:18;;;;;;;;;;;;;;;5.73;83.77;102042.88;4212128;28;20026;-70
2023/11/18 08:25:21;;;;;;;;;;;;;;;5.73;83.75;102037.53;4190797;28;19929;-70
2023/11/18 08:27:23;;;;;;;;;;;;;;;5.73;83.98;102037.53;4217336;28;20026;-71
2023/11/18 08:29:31;;;;;;;;;;;;;;;5.73;83.71;102034.00;4218318;28;19924;-70
2023/11/18 08:31:34;;;;;;;;;;;;;;;5.74;83.85;102041.09;4217983;28;20038;-70
2023/11/18 08:33:35;;;;;;;;;;;;;;;5.75;83.98;102040.97;4217387;28;20834;-70
2023/11/18 08:35:37;;;;;;;;;;;;;;;5.76;83.81;102044.50;4217760;28;19962;-68
2023/11/18 08:37:40;;;;;;;;;;;;;;;5.76;83.58;102053.38;4219223;28;20014;-69
2023/11/18 08:39:42;;;;;;;;;;;;;;;5.77;83.60;102047.06;4217113;28;20043;-69
2023/11/18 08:41:45;;;;;;;;;;;;;;;5.76;83.78;102044.50;4216394;28;20062;-68
2023/11/18 08:43:49;;;;;;;;;;;;;;;5.75;83.94;102037.41;4219215;28;19969;-70
2023/11/18 08:45:51;;;;;;;;;;;;;;;5.75;83.97;102040.09;4218033;28;19924;-68
2023/11/18 08:47:55;;;;;;;;;;;;;;;5.75;84.03;102042.78;4217911;28;20027;-68
2023/11/18 08:49:57;;;;;;;;;;;;;;;5.75;84.02;102034.72;4217183;28;19923;-69
2023/11/18 08:51:58;;;;;;;;;;;;;;;5.75;84.11;102038.28;4219955;28;20012;-68
2023/11/18 08:54:01;;;;;;;;;;;;;;;5.76;83.98;102036.44;4218858;28;20022;-69
2023/11/18 08:56:05;;;;;;;;;;;;;;;5.76;83.85;102020.38;4215787;28;20010;-69
2023/11/18 08:58:15;;;;;;;;;;;;;;;5.78;83.91;102037.19;4219483;28;20275;-69
2023/11/18 09:00:46;;;;;;;;;;;;;;;5.78;84.18;102039.88;4201181;28;19971;-71
2023/11/18 09:02:43;;;;;;;;;;;;;;;5.81;83.68;102046.84;4218104;28;20465;-71
2023/11/18 09:04:47;;;;;;;;;;;;;;;5.81;83.75;102049.50;4219882;28;20390;-70
2023/11/18 09:06:51;;;;;;;;;;;;;;;5.81;83.92;102052.19;4217868;28;19928;-71
2023/11/18 09:08:53;;;;;;;;;;;;;;;5.82;83.50;102059.28;4218544;28;20003;-71
2023/11/18 09:10:54;;;;;;;;;;;;;;;5.83;83.56;102055.59;4217234;28;20022;-69
2023/11/18 09:12:57;;;;;;;;;;;;;;;5.84;83.65;102058.19;4216909;28;20521;-69
2023/11/18 09:14:59;;;;;;;;;;;;;;;5.85;83.41;102059.06;4218166;28;20338;-71
2023/11/18 09:17:01;;;;;;;;;;;;;;;5.84;83.44;102058.19;4218289;28;20015;-70
2023/11/18 09:19:05;;;;;;;;;;;;;;;5.86;83.35;102068.78;4218760;28;20031;-69
2023/11/18 09:21:14;;;;;;;;;;;;;;;5.86;83.37;102068.78;4219663;28;20048;-70
2023/11/18 09:23:15;;;;;;;;;;;;;;;5.86;83.28;102077.72;4220430;28;20369;-70
2023/11/18 09:25:17;;;;;;;;;;;;;;;5.86;83.37;102074.16;4220745;28;20944;-69
2023/11/18 09:27:19;;;;;;;;;;;;;;;5.88;83.45;102077.59;4220928;28;20447;-69
2023/11/18 09:29:24;;;;;;;;;;;;;;;5.87;83.05;102076.72;4228727;28;19963;-70
2023/11/18 09:31:24;;;;;;;;;;;;;;;5.88;83.13;102072.25;4230213;28;19959;-71
2023/11/18 09:33:28;;;;;;;;;;;;;;;5.90;82.58;102072.97;4231753;28;19955;-71
2023/11/18 09:35:29;;;;;;;;;;;;;;;5.90;82.57;102073.81;4219730;28;19967;-69
2023/11/18 09:37:33;;;;;;;;;;;;;;;5.91;82.16;102077.38;4219505;28;19964;-72
2023/11/18 09:39:38;;;;;;;;;;;;;;;5.92;82.41;102073.69;4220540;28;19961;-70
2023/11/18 09:41:40;;;;;;;;;;;;;;;5.91;82.40;102066.66;4219371;28;20011;-73
2023/11/18 09:43:46;;;;;;;;;;;;;;;5.92;82.27;102071.03;4222100;28;19931;-72
2023/11/18 09:45:47;;;;;;;;;;;;;;;5.91;82.29;102070.16;4222969;28;20014;-72
2023/11/18 09:47:53;;;;;;;;;;;;;;;5.92;82.63;102065.66;4221772;28;19932;-69
2023/11/18 09:49:55;;;;;;;;;;;;;;;5.94;82.45;102066.38;4223012;28;20027;-70
2023/11/18 09:51:58;;;;;;;;;;;;;;;5.93;82.62;102064.69;4220348;27;20030;-71
2023/11/18 09:54:05;;;;;;;;;;;;;;;5.94;82.54;102071.75;4220215;28;20400;-69
2023/11/18 09:56:09;;;;;;;;;;;;;;;5.94;82.61;102066.38;4222236;28;20059;-70
2023/11/18 09:58:14;;;;;;;;;;;;;;;5.94;82.15;102075.31;4223096;28;19991;-69
2023/11/18 10:00:21;;;;;;;;;;;;;;;5.96;82.01;102077.88;4221402;28;20375;-69
2023/11/18 10:02:23;;;;;;;;;;;;;;;5.97;81.60;102078.75;4220450;28;20441;-69
2023/11/18 10:04:27;;;;;;;;;;;;;;;5.97;81.64;102087.66;4221777;28;20019;-71
2023/11/18 10:06:33;;;;;;;;;;;;;;;6.01;81.02;102086.47;4220999;28;20031;-70
2023/11/18 10:08:37;;;;;;;;;;;;;;;6.02;80.77;102085.50;4222805;28;19935;-71
2023/11/18 10:10:45;;;;;;;;;;;;;;;6.03;80.79;102081.81;4221135;28;20430;-70
2023/11/18 10:12:51;;;;;;;;;;;;;;;6.03;80.59;102073.78;4221794;27;20785;-71
2023/11/18 10:14:54;;;;;;;;;;;;;;;6.02;80.69;102076.56;4221983;28;20018;-71
2023/11/18 10:16:55;;;;;;;;;;;;;;;6.03;80.66;102073.78;4202962;28;20033;-70
2023/11/18 10:19:00;;;;;;;;;;;;;;;6.03;80.69;102072.94;4220304;28;19967;-71
2023/11/18 10:21:03;;;;;;;;;;;;;;;6.02;80.67;102066.72;4218739;28;20437;-72
2023/11/18 10:23:10;;;;;;;;;;;;;;;6.03;80.29;102070.25;4220645;28;20015;-71
2023/11/18 10:25:13;;;;;;;;;;;;;;;6.05;80.33;102063.81;4220067;28;20027;-72
2023/11/18 10:27:19;;;;;;;;;;;;;;;6.07;79.89;102063.69;4220231;28;20457;-69
2023/11/18 10:29:21;;;;;;;;;;;;;;;6.05;79.90;102066.50;4222543;28;20556;-70
2023/11/18 10:31:24;;;;;;;;;;;;;;;6.09;79.83;102065.28;4204414;28;20011;-72
2023/11/18 10:33:30;;;;;;;;;;;;;;;6.09;80.03;102064.44;4213188;28;20459;-68
2023/11/18 10:35:33;;;;;;;;;;;;;;;6.07;80.01;102056.50;4217721;28;19970;-70
2023/11/18 10:37:41;;;;;;;;;;;;;;;6.08;79.92;102058.22;4220174;28;20026;-69
2023/11/18 10:39:44;;;;;;;;;;;;;;;6.08;79.58;102057.34;4218177;28;20038;-70
2023/11/18 10:41:47;;;;;;;;;;;;;;;6.08;79.50;102062.72;4218266;28;20026;-69
2023/11/18 10:43:53;;;;;;;;;;;;;;;6.07;79.64;102061.03;4220564;28;20028;-68
2023/11/18 10:45:54;;;;;;;;;;;;;;;6.07;79.46;102061.88;4219786;28;20690;-71
2023/11/18 10:47:57;;;;;;;;;;;;;;;6.08;79.65;102073.44;4219106;28;20054;-73
2023/11/18 10:49:58;;;;;;;;;;;;;;;6.07;79.62;102074.44;4220056;27;20011;-69
2023/11/18 10:52:06;;;;;;;;;;;;;;;6.09;79.59;102072.47;4219175;28;20026;-70
2023/11/18 10:54:15;;;;;;;;;;;;;;;6.09;79.37;102067.13;4218838;28;20022;-69
2023/11/18 10:56:19;;;;;;;;;;;;;;;6.09;79.24;102067.97;4219351;28;20027;-69
2023/11/18 10:58:21;;;;;;;;;;;;;;;6.13;78.95;102076.66;4218564;28;20301;-70
2023/11/18 11:00:26;;;;;;;;;;;;;;;6.13;79.16;102082.88;4217475;28;20750;-71
2023/11/18 11:02:34;;;;;;;;;;;;;;;6.13;79.32;102076.66;4217145;28;20272;-69
2023/11/18 11:04:43;;;;;;;;;;;;;;;6.12;79.13;102086.50;4219089;28;20018;-70
2023/11/18 11:06:52;;;;;;;;;;;;;;;6.11;79.39;102079.44;4219190;28;20043;-70
2023/11/18 11:08:53;;;;;;;;;;;;;;;6.12;79.22;102081.16;4217521;28;20393;-70
2023/11/18 11:10:55;;;;;;;;;;;;;;;6.11;79.37;102079.44;4217759;28;19949;-71
2023/11/18 11:12:57;;;;;;;;;;;;;;;6.10;79.12;102076.88;4219738;28;19999;-70
2023/11/18 11:15:00;;;;;;;;;;;;;;;6.10;79.48;102077.72;4219090;28;19924;-70
2023/11/18 11:17:11;;;;;;;;;;;;;;;6.08;79.40;102076.13;4217543;28;20453;-70
2023/11/18 11:19:22;;;;;;;;;;;;;;;6.07;79.57;102082.47;4217715;28;20015;-69
2023/11/18 11:21:28;;;;;;;;;;;;;;;6.08;79.82;102086.84;4218958;28;20023;-70
2023/11/18 11:23:43;;;;;;;;;;;;;;;6.06;79.61;102088.81;4218032;28;20015;-70
2023/11/18 11:25:50;;;;;;;;;;;;;;;6.03;80.02;102089.03;4218837;28;20035;-68